createdAt,value
2018-04-26T00:01:08.972Z,97.20
2018-04-26T00:03:36.518Z,97.20
2018-04-26T00:06:04.056Z,97.20
2018-04-26T00:08:31.562Z,97.20
2018-04-26T00:10:59.082Z,97.40
2018-04-26T00:13:26.618Z,97.50
2018-04-26T00:15:56.096Z,97.70
2018-04-26T00:18:23.618Z,97.70
2018-04-26T00:20:51.131Z,97.80
2018-04-26T00:23:18.642Z,98.00
2018-04-26T00:25:46.190Z,98.00
2018-04-26T00:28:13.811Z,98.00
2018-04-26T00:30:43.686Z,97.90
2018-04-26T00:33:11.209Z,97.90
2018-04-26T00:35:38.752Z,98.00
2018-04-26T00:38:06.282Z,97.90
2018-04-26T00:40:33.800Z,98.10
2018-04-26T00:43:01.309Z,98.10
2018-04-26T00:45:28.884Z,98.00
2018-04-26T00:47:57.209Z,97.90
2018-04-26T00:50:24.710Z,97.90
2018-04-26T00:52:52.234Z,97.90
2018-04-26T00:55:19.762Z,97.90
2018-04-26T00:57:47.292Z,97.90
2018-04-26T01:00:14.823Z,97.90
2018-04-26T01:02:42.383Z,98.00
2018-04-26T01:05:09.906Z,98.10
2018-04-26T01:07:37.424Z,98.20
2018-04-26T01:10:05.700Z,98.40
2018-04-26T01:12:33.987Z,98.20
2018-04-26T01:15:01.488Z,98.10
2018-04-26T01:17:29.012Z,98.20
2018-04-26T01:19:56.551Z,98.20
2018-04-26T01:22:24.957Z,98.20
2018-04-26T01:24:52.476Z,98.20
2018-04-26T01:27:20.770Z,98.20
2018-04-26T01:29:48.296Z,98.20
2018-04-26T01:32:15.816Z,98.30
2018-04-26T01:34:43.344Z,98.30
2018-04-26T01:37:23.490Z,98.40
2018-04-26T01:39:51.775Z,98.30
2018-04-26T01:42:19.330Z,98.30
2018-04-26T01:44:46.850Z,98.30
2018-04-26T01:47:14.379Z,98.50
2018-04-26T01:49:41.914Z,98.40
2018-04-26T01:52:09.456Z,98.40
2018-04-26T01:54:37.734Z,98.50
2018-04-26T01:57:06.037Z,98.40
2018-04-26T01:59:33.564Z,98.40
2018-04-26T02:02:01.080Z,98.50
2018-04-26T02:04:29.154Z,98.50
2018-04-26T02:06:56.850Z,98.40
2018-04-26T02:09:25.137Z,98.60
2018-04-26T02:11:53.424Z,98.60
2018-04-26T02:14:21.006Z,98.60
2018-04-26T02:16:48.536Z,98.60
2018-04-26T02:19:16.818Z,98.60
2018-04-26T02:21:44.332Z,98.60
2018-04-26T02:24:13.356Z,98.70
2018-04-26T02:26:41.622Z,98.90
2018-04-26T02:29:09.132Z,98.90
2018-04-26T02:31:36.655Z,99.10
2018-04-26T02:34:04.200Z,99.30
2018-04-26T02:36:32.498Z,99.50
2018-04-26T02:39:00.005Z,99.40
2018-04-26T02:41:27.536Z,99.40
2018-04-26T02:43:55.057Z,99.40
2018-04-26T02:46:23.338Z,99.30
2018-04-26T02:48:51.626Z,99.50
2018-04-26T02:51:19.141Z,99.50
2018-04-26T02:53:47.561Z,99.40
2018-04-26T02:56:15.088Z,99.30
2018-04-26T02:58:42.604Z,99.20
2018-04-26T03:01:10.235Z,99.10
2018-04-26T03:03:37.809Z,99.00
2018-04-26T03:06:05.344Z,99.10
2018-04-26T03:08:32.888Z,99.10
2018-04-26T03:11:01.174Z,99.20
2018-04-26T03:13:29.471Z,99.20
2018-04-26T03:15:56.977Z,99.10
2018-04-26T03:18:24.489Z,99.20
2018-04-26T03:20:53.279Z,99.20
2018-04-26T03:23:21.399Z,99.10
2018-04-26T03:25:49.945Z,99.10
2018-04-26T03:28:17.475Z,99.20
2018-04-26T03:30:45.766Z,99.10
2018-04-26T03:33:13.274Z,99.10
2018-04-26T03:35:40.795Z,99.20
2018-04-26T03:38:08.346Z,99.20
2018-04-26T03:40:35.988Z,99.20
2018-04-26T03:43:04.265Z,99.40
2018-04-26T03:45:32.555Z,99.40
2018-04-26T03:48:00.082Z,99.40
2018-04-26T03:50:27.648Z,99.30
2018-04-26T03:52:56.123Z,99.40
2018-04-26T03:55:24.408Z,99.50
2018-04-26T03:57:52.688Z,99.40
2018-04-26T04:00:32.766Z,99.50
2018-04-26T04:03:12.120Z,99.40
2018-04-26T04:05:51.506Z,99.50
2018-04-26T04:08:19.789Z,99.70
2018-04-26T04:10:48.065Z,99.60
2018-04-26T04:13:16.352Z,99.70
2018-04-26T04:15:43.882Z,99.60
2018-04-26T04:18:11.448Z,99.70
2018-04-26T04:20:39.846Z,99.80
2018-04-26T04:23:07.372Z,99.80
2018-04-26T04:25:34.877Z,99.90
2018-04-26T04:28:02.433Z,99.90
2018-04-26T04:30:29.974Z,99.90
2018-04-26T04:32:57.968Z,99.90
2018-04-26T04:35:25.553Z,99.90
2018-04-26T04:37:53.045Z,99.90
2018-04-26T04:40:20.593Z,99.90
2018-04-26T04:42:48.115Z,99.90
2018-04-26T04:45:15.642Z,99.90
2018-04-26T04:47:43.839Z,99.90
2018-04-26T04:50:11.385Z,99.90
2018-04-26T04:52:38.912Z,99.90
2018-04-26T04:55:07.199Z,99.90
2018-04-26T04:57:35.496Z,99.90
2018-04-26T05:00:03.092Z,99.90
2018-04-26T05:02:30.645Z,99.90
2018-04-26T05:04:58.210Z,99.90
2018-04-26T05:07:25.738Z,99.90
2018-04-26T05:09:53.259Z,99.90
2018-04-26T05:12:21.227Z,99.90
2018-04-26T05:14:49.524Z,99.90
2018-04-26T05:17:17.039Z,99.90
2018-04-26T05:19:44.583Z,99.90
2018-04-26T05:22:12.092Z,99.90
2018-04-26T05:24:40.372Z,99.90
2018-04-26T05:27:07.910Z,99.90
2018-04-26T05:29:35.575Z,99.90
2018-04-26T05:32:03.134Z,99.90
2018-04-26T05:34:31.434Z,99.90
2018-04-26T05:36:58.946Z,99.90
2018-04-26T05:39:26.465Z,99.90
2018-04-26T05:41:53.999Z,99.90
2018-04-26T05:44:22.424Z,99.90
2018-04-26T05:46:49.950Z,99.90
2018-04-26T05:49:17.491Z,99.90
2018-04-26T05:51:45.228Z,99.90
2018-04-26T05:54:12.750Z,99.90
2018-04-26T05:56:40.298Z,99.90
2018-04-26T05:59:07.849Z,99.90
2018-04-26T06:01:36.050Z,99.90
2018-04-26T06:04:03.563Z,99.90
2018-04-26T06:06:31.079Z,99.90
2018-04-26T06:08:58.619Z,99.90
2018-04-26T06:11:26.146Z,99.90
2018-04-26T06:13:53.930Z,99.90
2018-04-26T06:16:21.481Z,99.90
2018-04-26T06:18:49.069Z,99.90
2018-04-26T06:21:17.245Z,99.90
2018-04-26T06:23:44.981Z,99.90
2018-04-26T06:26:12.526Z,99.90
2018-04-26T06:28:40.817Z,99.90
2018-04-26T06:31:08.385Z,99.90
2018-04-26T06:33:36.222Z,99.90
2018-04-26T06:36:03.782Z,99.90
2018-04-26T06:38:32.067Z,99.80
2018-04-26T06:40:59.593Z,99.80
2018-04-26T06:43:27.872Z,99.60
2018-04-26T06:45:56.141Z,99.30
2018-04-26T06:48:23.676Z,99.30
2018-04-26T06:50:52.458Z,99.40
2018-04-26T06:53:19.977Z,99.30
2018-04-26T06:55:47.481Z,99.40
2018-04-26T06:58:15.833Z,99.40
2018-04-26T07:00:43.357Z,99.40
2018-04-26T07:03:11.661Z,99.30
2018-04-26T07:05:39.191Z,99.30
2018-04-26T07:08:08.055Z,99.20
2018-04-26T07:10:35.559Z,99.10
2018-04-26T07:13:03.076Z,99.20
2018-04-26T07:15:30.595Z,99.20
2018-04-26T07:17:58.103Z,99.50
2018-04-26T07:20:26.475Z,99.10
2018-04-26T07:22:53.972Z,99.00
2018-04-26T07:25:21.494Z,98.80
2018-04-26T07:27:49.905Z,98.90
2018-04-26T07:30:17.529Z,98.90
2018-04-26T07:32:45.027Z,98.80
2018-04-26T07:35:12.531Z,98.50
2018-04-26T07:37:40.024Z,98.60
2018-04-26T07:40:08.325Z,98.60
2018-04-26T07:42:35.862Z,98.50
2018-04-26T07:45:03.415Z,98.50
2018-04-26T07:47:31.700Z,98.60
2018-04-26T07:49:59.211Z,98.50
2018-04-26T07:52:26.751Z,98.10
2018-04-26T07:54:54.279Z,98.10
2018-04-26T07:57:21.827Z,97.60
2018-04-26T07:59:49.400Z,97.80
2018-04-26T08:02:17.541Z,98.10
2018-04-26T08:04:45.057Z,98.40
2018-04-26T08:07:12.562Z,98.50
2018-04-26T08:09:40.831Z,98.40
2018-04-26T08:12:08.353Z,98.40
2018-04-26T08:14:36.140Z,98.10
2018-04-26T08:17:03.649Z,98.30
2018-04-26T08:19:31.211Z,97.70
2018-04-26T08:21:58.693Z,97.60
2018-04-26T08:24:27.075Z,97.50
2018-04-26T08:26:54.624Z,97.00
2018-04-26T08:29:22.196Z,96.90
2018-04-26T08:31:49.727Z,96.90
2018-04-26T08:34:17.250Z,95.90
2018-04-26T08:36:45.591Z,95.60
2018-04-26T08:39:13.102Z,95.60
2018-04-26T08:41:40.632Z,94.50
2018-04-26T08:44:08.958Z,93.30
2018-04-26T08:46:36.476Z,93.30
2018-04-26T08:49:03.996Z,93.10
2018-04-26T08:51:31.538Z,92.30
2018-04-26T08:53:59.060Z,92.90
2018-04-26T08:56:26.592Z,93.50
2018-04-26T08:58:54.102Z,93.30
2018-04-26T09:01:21.624Z,94.00
2018-04-26T09:03:50.005Z,93.20
2018-04-26T09:06:18.280Z,95.30
2018-04-26T09:08:47.580Z,95.50
2018-04-26T09:11:15.859Z,95.60
2018-04-26T09:13:44.161Z,94.60
2018-04-26T09:16:11.682Z,94.60
2018-04-26T09:18:39.204Z,94.40
2018-04-26T09:21:06.810Z,93.90
2018-04-26T09:23:34.285Z,93.30
2018-04-26T09:26:01.792Z,93.00
2018-04-26T09:28:29.316Z,92.10
2018-04-26T09:30:56.848Z,92.60
2018-04-26T09:33:24.345Z,91.60
2018-04-26T09:35:52.082Z,91.90
2018-04-26T09:38:19.637Z,92.40
2018-04-26T09:40:47.159Z,93.60
2018-04-26T09:43:14.670Z,93.90
2018-04-26T09:45:42.193Z,94.30
2018-04-26T09:48:09.726Z,94.70
2018-04-26T09:50:38.018Z,94.80
2018-04-26T09:53:05.520Z,95.30
2018-04-26T09:55:33.373Z,95.50
2018-04-26T09:58:00.827Z,95.50
2018-04-26T10:00:30.046Z,96.10
2018-04-26T10:02:57.559Z,96.10
2018-04-26T10:05:30.822Z,96.50
2018-04-26T10:07:58.330Z,97.20
2018-04-26T10:10:25.867Z,96.70
2018-04-26T10:12:53.398Z,96.80
2018-04-26T10:15:21.020Z,97.40
2018-04-26T10:17:48.541Z,96.90
2018-04-26T10:20:16.055Z,97.20
2018-04-26T10:22:43.587Z,96.60
2018-04-26T10:25:11.137Z,96.80
2018-04-26T10:27:38.676Z,95.90
2018-04-26T10:30:06.187Z,95.80
2018-04-26T10:32:33.731Z,95.50
2018-04-26T10:35:01.233Z,95.20
2018-04-26T10:37:29.480Z,95.60
2018-04-26T10:39:57.002Z,96.60
2018-04-26T10:42:25.286Z,96.30
2018-04-26T10:44:52.830Z,96.30
2018-04-26T10:47:20.370Z,96.10
2018-04-26T10:49:47.966Z,96.20
2018-04-26T10:52:15.498Z,96.00
2018-04-26T10:54:43.640Z,96.30
2018-04-26T10:57:11.172Z,96.50
2018-04-26T10:59:38.690Z,97.00
2018-04-26T11:02:07.178Z,96.40
2018-04-26T11:04:34.912Z,96.30
2018-04-26T11:07:02.449Z,97.10
2018-04-26T11:09:29.965Z,96.30
2018-04-26T11:11:58.244Z,96.20
2018-04-26T11:14:26.641Z,95.80
2018-04-26T11:16:54.159Z,95.80
2018-04-26T11:19:22.439Z,95.70
2018-04-26T11:21:50.729Z,94.80
2018-04-26T11:24:18.278Z,95.10
2018-04-26T11:26:46.052Z,94.90
2018-04-26T11:29:13.681Z,94.30
2018-04-26T11:31:41.305Z,93.20
2018-04-26T11:34:08.877Z,93.90
2018-04-26T11:36:36.415Z,93.40
2018-04-26T11:39:03.944Z,92.50
2018-04-26T11:41:33.250Z,91.40
2018-04-26T11:44:01.535Z,91.10
2018-04-26T11:46:29.063Z,91.10
2018-04-26T11:48:56.616Z,91.00
2018-04-26T11:51:24.130Z,91.20
2018-04-26T11:53:51.669Z,91.50
2018-04-26T11:56:19.211Z,91.20
2018-04-26T11:58:47.484Z,91.10
2018-04-26T12:01:15.765Z,90.70
2018-04-26T12:03:44.054Z,91.20
2018-04-26T12:06:12.682Z,91.10
2018-04-26T12:08:40.214Z,87.60
2018-04-26T12:11:07.737Z,87.10
2018-04-26T12:13:35.233Z,85.80
2018-04-26T12:16:02.776Z,82.90
2018-04-26T12:18:31.067Z,85.70
2018-04-26T12:20:58.706Z,85.60
2018-04-26T12:23:26.405Z,84.10
2018-04-26T12:25:53.959Z,85.80
2018-04-26T12:28:21.621Z,84.00
2018-04-26T12:30:49.139Z,82.30
2018-04-26T12:33:17.621Z,81.70
2018-04-26T12:35:45.919Z,82.70
2018-04-26T12:38:13.447Z,82.70
2018-04-26T12:40:40.982Z,80.10
2018-04-26T12:43:09.122Z,80.20
2018-04-26T12:45:36.632Z,79.80
2018-04-26T12:48:04.170Z,80.40
2018-04-26T12:50:31.715Z,83.00
2018-04-26T12:52:59.278Z,83.80
2018-04-26T12:55:26.800Z,82.80
2018-04-26T12:57:54.440Z,84.30
2018-04-26T13:00:22.738Z,82.40
2018-04-26T13:02:50.260Z,82.40
2018-04-26T13:05:18.541Z,81.70
2018-04-26T13:07:46.079Z,81.70
2018-04-26T13:10:13.599Z,82.60
2018-04-26T13:12:41.144Z,79.60
2018-04-26T13:15:08.723Z,79.00
2018-04-26T13:17:36.235Z,79.00
2018-04-26T13:20:03.773Z,78.00
2018-04-26T13:22:31.302Z,76.40
2018-04-26T13:24:58.823Z,76.30
2018-04-26T13:27:26.471Z,73.30
2018-04-26T13:29:53.968Z,73.00
2018-04-26T13:32:21.491Z,70.40
2018-04-26T13:34:49.823Z,69.90
2018-04-26T13:37:18.323Z,70.00
2018-04-26T13:39:45.854Z,68.60
2018-04-26T13:42:13.610Z,70.20
2018-04-26T13:44:41.367Z,71.80
2018-04-26T13:47:09.138Z,72.80
2018-04-26T13:49:36.812Z,73.70
2018-04-26T13:52:04.681Z,74.20
2018-04-26T13:54:32.206Z,75.40
2018-04-26T13:57:00.125Z,75.60
2018-04-26T13:59:27.732Z,79.60
2018-04-26T14:01:55.277Z,83.00
2018-04-26T14:04:23.561Z,84.40
2018-04-26T14:06:51.088Z,84.30
2018-04-26T14:09:18.643Z,85.50
2018-04-26T14:11:46.253Z,86.90
2018-04-26T14:14:14.352Z,86.60
2018-04-26T14:16:42.647Z,87.40
2018-04-26T14:19:10.200Z,87.10
2018-04-26T14:21:37.765Z,84.10
2018-04-26T14:24:06.071Z,86.10
2018-04-26T14:26:34.361Z,85.00
2018-04-26T14:29:01.892Z,85.10
2018-04-26T14:31:30.203Z,86.00
2018-04-26T14:33:57.745Z,85.90
2018-04-26T14:36:26.107Z,84.30
2018-04-26T14:38:53.635Z,84.30
2018-04-26T14:41:21.196Z,85.90
2018-04-26T14:43:48.779Z,83.50
2018-04-26T14:46:17.097Z,76.00
2018-04-26T14:48:44.646Z,75.90
2018-04-26T14:51:12.177Z,74.20
2018-04-26T14:53:40.533Z,71.90
2018-04-26T14:56:08.928Z,71.70
2018-04-26T14:58:36.442Z,72.70
2018-04-26T15:01:03.963Z,73.10
2018-04-26T15:03:31.667Z,72.50
2018-04-26T15:05:59.210Z,73.20
2018-04-26T15:08:28.301Z,69.60
2018-04-26T15:10:55.811Z,68.00
2018-04-26T15:13:23.351Z,67.60
2018-04-26T15:15:50.892Z,65.90
2018-04-26T15:18:18.507Z,64.30
2018-04-26T15:20:46.796Z,60.70
2018-04-26T15:23:14.332Z,60.70
2018-04-26T15:25:41.881Z,63.30
2018-04-26T15:28:10.192Z,64.30
2018-04-26T15:30:37.710Z,64.30
2018-04-26T15:33:06.748Z,63.40
2018-04-26T15:35:34.274Z,63.30
2018-04-26T15:38:02.348Z,62.10
2018-04-26T15:40:29.893Z,62.40
2018-04-26T15:42:57.583Z,62.90
2018-04-26T15:45:25.913Z,65.80
2018-04-26T15:47:53.758Z,65.70
2018-04-26T15:53:35.671Z,66.60
2018-04-26T15:56:28.541Z,66.70
2018-04-26T15:59:16.586Z,68.50
2018-04-26T16:01:59.484Z,66.70
2018-04-26T16:04:38.914Z,66.10
2018-04-26T16:07:42.381Z,64.60
2018-04-26T16:10:22.424Z,64.10
2018-04-26T16:13:08.320Z,63.20
2018-04-26T16:15:53.598Z,63.10
2018-04-26T16:18:47.903Z,64.30
2018-04-26T16:21:32.965Z,64.20
2018-04-26T16:24:31.723Z,64.20
2018-04-26T16:30:39.075Z,63.30
2018-04-26T16:33:33.463Z,63.90
2018-04-26T16:36:25.604Z,64.10
2018-04-26T16:41:57.509Z,66.00
2018-04-26T16:44:25.937Z,65.60
2018-04-26T16:46:54.225Z,65.30
2018-04-26T16:49:21.755Z,65.30
2018-04-26T16:51:49.544Z,65.90
2018-04-26T16:54:17.095Z,67.10
2018-04-26T16:56:45.393Z,67.00
2018-04-26T16:59:12.925Z,66.90
2018-04-26T17:01:41.228Z,66.70
2018-04-26T17:04:08.982Z,66.50
2018-04-26T17:06:36.512Z,67.00
2018-04-26T17:09:04.034Z,66.80
2018-04-26T17:11:31.550Z,66.80
2018-04-26T17:13:59.092Z,65.90
2018-04-26T17:16:26.676Z,67.50
2018-04-26T17:18:54.222Z,65.70
2018-04-26T17:21:22.531Z,65.60
2018-04-26T17:23:50.057Z,65.50
2018-04-26T17:26:18.359Z,64.40
2018-04-26T17:28:46.692Z,64.40
2018-04-26T17:31:14.243Z,63.70
2018-04-26T17:33:41.777Z,63.70
2018-04-26T17:36:09.363Z,63.50
2018-04-26T17:38:36.915Z,64.70
2018-04-26T17:41:04.437Z,65.40
2018-04-26T17:43:32.959Z,64.60
2018-04-26T17:46:00.484Z,65.70
2018-04-26T17:48:28.017Z,65.60
2018-04-26T17:50:55.553Z,65.00
2018-04-26T17:53:23.840Z,66.60
2018-04-26T17:55:52.859Z,67.10
2018-04-26T17:58:20.518Z,67.00
2018-04-26T18:00:47.983Z,67.00
2018-04-26T18:03:15.513Z,67.70
2018-04-26T18:05:43.851Z,68.30
2018-04-26T18:08:11.383Z,68.30
2018-04-26T18:10:38.950Z,68.50
2018-04-26T18:13:06.480Z,68.30
2018-04-26T18:15:34.075Z,68.50
2018-04-26T18:18:01.639Z,68.60
2018-04-26T18:20:29.614Z,68.90
2018-04-26T18:22:57.219Z,68.80
2018-04-26T18:25:24.887Z,68.80
2018-04-26T18:27:52.492Z,69.00
2018-04-26T18:30:20.151Z,69.50
2018-04-26T18:32:47.774Z,69.90
2018-04-26T18:35:15.460Z,70.10
2018-04-26T18:37:43.087Z,71.10
2018-04-26T18:40:11.854Z,71.60
2018-04-26T18:42:40.195Z,72.30
2018-04-26T18:45:07.791Z,72.30
2018-04-26T18:47:35.403Z,72.10
2018-04-26T18:50:04.141Z,72.00
2018-04-26T18:52:31.772Z,72.50
2018-04-26T18:54:59.490Z,73.20
2018-04-26T18:57:28.099Z,73.10
2018-04-26T18:59:55.673Z,73.70
2018-04-26T19:02:23.322Z,73.90
2018-04-26T19:04:52.502Z,74.10
2018-04-26T19:07:20.227Z,74.00
2018-04-26T19:09:48.557Z,74.20
2018-04-26T19:12:16.205Z,74.10
2018-04-26T19:14:43.831Z,74.50
2018-04-26T19:17:11.415Z,74.60
2018-04-26T19:19:38.994Z,75.00
2018-04-26T19:22:06.773Z,75.10
2018-04-26T19:24:35.373Z,75.80
2018-04-26T19:27:02.949Z,75.70
2018-04-26T19:29:31.376Z,76.80
2018-04-26T19:31:59.895Z,76.60
2018-04-26T19:34:29.187Z,76.40
2018-04-26T19:36:56.809Z,76.40
2018-04-26T19:39:24.486Z,76.60
2018-04-26T19:41:53.094Z,77.10
2018-04-26T19:44:21.762Z,76.90
2018-04-26T19:46:50.185Z,78.00
2018-04-26T19:49:17.821Z,78.30
2018-04-26T19:51:46.299Z,78.30
2018-04-26T19:54:14.680Z,79.00
2018-04-26T19:56:42.238Z,79.00
2018-04-26T19:59:09.807Z,78.90
2018-04-26T20:01:37.452Z,79.00
2018-04-26T20:04:05.022Z,79.30
2018-04-26T20:06:32.608Z,79.40
2018-04-26T20:09:00.918Z,80.20
2018-04-26T20:11:28.474Z,80.10
2018-04-26T20:13:56.844Z,80.30
2018-04-26T20:16:24.472Z,80.00
2018-04-26T20:18:52.849Z,81.00
2018-04-26T20:21:20.410Z,81.00
2018-04-26T20:23:48.744Z,80.30
2018-04-26T20:26:16.272Z,80.30
2018-04-26T20:28:44.522Z,80.90
2018-04-26T20:31:12.106Z,80.80
2018-04-26T20:33:39.650Z,81.00
2018-04-26T20:36:07.266Z,81.10
2018-04-26T20:38:35.720Z,81.40
2018-04-26T20:41:03.326Z,81.50
2018-04-26T20:43:30.908Z,81.80
2018-04-26T20:45:59.210Z,82.50
2018-04-26T20:48:40.676Z,82.50
2018-04-26T20:51:09.020Z,83.40
2018-04-26T20:53:36.563Z,83.40
2018-04-26T20:56:04.122Z,83.50
2018-04-26T20:58:31.703Z,83.80
2018-04-26T21:00:59.265Z,84.00
2018-04-26T21:03:26.802Z,84.20
2018-04-26T21:05:54.337Z,84.70
2018-04-26T21:08:21.957Z,84.80
2018-04-26T21:10:49.469Z,85.10
2018-04-26T21:13:17.056Z,85.30
2018-04-26T21:15:45.164Z,85.20
2018-04-26T21:18:12.685Z,85.40
2018-04-26T21:20:40.210Z,85.70
2018-04-26T21:23:07.808Z,85.90
2018-04-26T21:25:36.835Z,86.30
2018-04-26T21:28:04.355Z,86.20
2018-04-26T21:30:32.684Z,86.50
2018-04-26T21:33:00.204Z,86.50
2018-04-26T21:35:28.741Z,86.50
2018-04-26T21:37:56.190Z,86.50
2018-04-26T21:40:23.700Z,86.60
2018-04-26T21:42:51.235Z,86.80
2018-04-26T21:45:18.757Z,87.00
2018-04-26T21:47:46.278Z,87.00
2018-04-26T21:50:19.552Z,87.10
2018-04-26T21:52:52.660Z,87.50
2018-04-26T21:55:25.752Z,87.50
2018-04-26T21:57:59.612Z,88.00
2018-04-26T22:00:33.008Z,88.00
2018-04-26T22:03:00.706Z,87.80
2018-04-26T22:05:30.264Z,88.00
2018-04-26T22:07:57.769Z,88.20
2018-04-26T22:10:25.312Z,88.00
2018-04-26T22:12:52.822Z,87.60
2018-04-26T22:15:20.339Z,88.50
2018-04-26T22:17:47.890Z,88.40
2018-04-26T22:20:15.490Z,88.40
2018-04-26T22:22:43.008Z,88.40
2018-04-26T22:25:10.520Z,88.70
2018-04-26T22:27:38.673Z,89.00
2018-04-26T22:30:06.945Z,89.30
2018-04-26T22:32:35.223Z,89.20
2018-04-26T22:35:03.496Z,89.60
2018-04-26T22:37:31.041Z,89.50
2018-04-26T22:39:58.580Z,89.60
2018-04-26T22:42:26.081Z,89.30
2018-04-26T22:44:54.355Z,90.00
2018-04-26T22:47:21.951Z,90.00
2018-04-26T22:49:49.582Z,90.00
2018-04-26T22:52:17.671Z,90.00
2018-04-26T22:54:45.189Z,90.10
2018-04-26T22:57:13.472Z,90.10
2018-04-26T22:59:41.758Z,90.20
2018-04-26T23:02:09.305Z,90.10
2018-04-26T23:04:36.812Z,90.20
2018-04-26T23:07:04.315Z,90.20
2018-04-26T23:09:32.717Z,90.20
2018-04-26T23:12:00.294Z,90.10
2018-04-26T23:14:27.861Z,90.50
2018-04-26T23:16:55.369Z,90.30
2018-04-26T23:19:23.643Z,90.50
2018-04-26T23:21:52.049Z,90.60
2018-04-26T23:24:19.569Z,90.50
2018-04-26T23:26:47.071Z,90.40
2018-04-26T23:29:14.588Z,90.40
2018-04-26T23:31:42.298Z,90.60
2018-04-26T23:34:10.068Z,90.60
2018-04-26T23:36:37.577Z,90.50
2018-04-26T23:39:05.089Z,90.60
2018-04-26T23:41:34.654Z,90.60
2018-04-26T23:44:02.917Z,90.40
2018-04-26T23:46:30.449Z,90.40
2018-04-26T23:48:57.954Z,90.50
2018-04-26T23:51:25.457Z,90.50
2018-04-26T23:53:52.969Z,90.50
2018-04-26T23:56:21.249Z,90.40
2018-04-26T23:58:48.812Z,90.40
